Terminal Aerodrome Forecast
Issued by NWS

Home | Current Version | Previous Version | Text Only | Print | Product List | Glossary Off
Versions: 1 2 3 4 5 6 7 8 9 10 11 12 13 14 15 16 17 18 19 20 21 22 23 24 25 26 27 28 29 30 31 32 33 34 35 36 37 38 39

000
FTUS43 KGRB 070040 AAA
TAFRHI
TAF AMD
KRHI 070040Z 0701/0724 35007KT 2SM FU OVC012
     FM070400 33006KT 4SM FU OVC008
     FM071000 34005KT 5SM BR SCT008
     FM071400 36008KT P6SM SCT020=

USA.gov is the U.S. government's official web portal to all federal, state and local government web resources and services.